createdAt,value
2019-03-20T00:00:18.316Z,64.30
2019-03-20T00:02:47.091Z,63.70
2019-03-20T00:05:15.803Z,60.50
2019-03-20T00:07:44.619Z,61.30
2019-03-20T00:10:13.401Z,61.70
2019-03-20T00:12:42.144Z,62.50
2019-03-20T00:15:11.528Z,62.60
2019-03-20T00:17:40.257Z,62.90
2019-03-20T00:20:09.627Z,63.00
2019-03-20T00:22:38.488Z,63.00
2019-03-20T00:25:07.226Z,63.10
2019-03-20T00:27:35.950Z,62.60
2019-03-20T00:30:05.653Z,62.40
2019-03-20T00:32:34.439Z,62.60
2019-03-20T00:35:03.221Z,63.10
2019-03-20T00:37:31.987Z,63.20
2019-03-20T00:40:00.701Z,62.00
2019-03-20T00:42:29.437Z,62.40
2019-03-20T00:45:01.154Z,64.80
2019-03-20T00:47:29.894Z,63.60
2019-03-20T00:49:58.642Z,64.80
2019-03-20T00:52:27.454Z,65.30
2019-03-20T00:54:56.175Z,65.10
2019-03-20T00:57:24.880Z,65.00
2019-03-20T00:59:53.624Z,65.50
2019-03-20T01:02:22.510Z,65.30
2019-03-20T01:04:51.215Z,65.30
2019-03-20T01:07:19.979Z,65.00
2019-03-20T01:09:48.779Z,65.20
2019-03-20T01:12:17.790Z,65.50
2019-03-20T01:14:46.625Z,65.60
2019-03-20T01:17:15.331Z,66.10
2019-03-20T01:19:44.078Z,65.50
2019-03-20T01:22:12.842Z,65.50
2019-03-20T01:24:41.563Z,65.40
2019-03-20T01:27:10.298Z,65.90
2019-03-20T01:29:39.038Z,65.90
2019-03-20T01:32:07.763Z,66.30
2019-03-20T01:34:36.481Z,67.20
2019-03-20T01:37:05.226Z,67.20
2019-03-20T01:39:33.939Z,66.80
2019-03-20T01:42:02.659Z,66.20
2019-03-20T01:44:31.497Z,66.70
2019-03-20T01:47:00.312Z,67.40
2019-03-20T01:49:29.104Z,67.80
2019-03-20T01:51:57.881Z,67.70
2019-03-20T01:54:26.605Z,67.30
2019-03-20T01:56:55.329Z,67.20
2019-03-20T01:59:24.076Z,67.50
2019-03-20T02:01:52.809Z,67.40
2019-03-20T02:04:21.533Z,67.10
2019-03-20T02:06:50.309Z,67.20
2019-03-20T02:09:19.019Z,67.00
2019-03-20T02:11:47.730Z,67.40
2019-03-20T02:14:16.458Z,68.00
2019-03-20T02:16:45.178Z,68.20
2019-03-20T02:19:13.924Z,68.20
2019-03-20T02:21:42.683Z,68.10
2019-03-20T02:24:11.392Z,68.20
2019-03-20T02:26:40.125Z,68.80
2019-03-20T02:29:08.891Z,69.00
2019-03-20T02:31:37.693Z,68.50
2019-03-20T02:34:06.417Z,68.20
2019-03-20T02:36:35.170Z,68.10
2019-03-20T02:39:05.436Z,68.00
2019-03-20T02:41:34.158Z,67.70
2019-03-20T02:44:02.939Z,68.00
2019-03-20T02:46:31.733Z,68.40
2019-03-20T02:49:00.455Z,68.10
2019-03-20T02:51:29.200Z,67.10
2019-03-20T02:53:57.988Z,67.10
2019-03-20T02:56:26.698Z,67.60
2019-03-20T02:58:55.449Z,67.20
2019-03-20T03:01:24.276Z,67.50
2019-03-20T03:03:52.998Z,68.70
2019-03-20T03:06:21.750Z,68.60
2019-03-20T03:08:50.569Z,68.90
2019-03-20T03:11:19.310Z,68.60
2019-03-20T03:13:48.218Z,68.70
2019-03-20T03:16:16.951Z,68.80
2019-03-20T03:18:45.690Z,69.30
2019-03-20T03:21:14.426Z,69.60
2019-03-20T03:23:43.159Z,69.90
2019-03-20T03:26:11.887Z,70.10
2019-03-20T03:28:40.631Z,70.10
2019-03-20T03:31:09.370Z,70.10
2019-03-20T03:33:38.164Z,69.70
2019-03-20T03:36:20.289Z,69.10
2019-03-20T03:38:37.376Z,69.30
2019-03-20T03:41:06.099Z,69.60
2019-03-20T03:43:34.930Z,69.80
2019-03-20T03:46:03.715Z,69.80
2019-03-20T03:48:32.446Z,69.60
2019-03-20T03:51:01.296Z,70.40
2019-03-20T03:53:30.083Z,70.50
2019-03-20T03:55:58.810Z,70.60
2019-03-20T03:58:27.627Z,70.40
2019-03-20T04:00:56.416Z,70.10
2019-03-20T04:03:25.132Z,70.50
2019-03-20T04:05:53.890Z,70.50
2019-03-20T04:08:22.610Z,70.30
2019-03-20T04:10:51.334Z,70.20
2019-03-20T04:13:20.231Z,69.50
2019-03-20T04:15:49.016Z,68.80
2019-03-20T04:18:17.827Z,71.70
2019-03-20T04:20:46.568Z,68.30
2019-03-20T04:23:15.311Z,68.90
2019-03-20T04:25:44.048Z,68.40
2019-03-20T04:28:12.869Z,69.00
2019-03-20T04:30:41.648Z,69.70
2019-03-20T04:33:10.473Z,70.60
2019-03-20T04:35:39.259Z,69.60
2019-03-20T04:38:07.991Z,70.40
2019-03-20T04:40:36.975Z,70.30
2019-03-20T04:43:05.762Z,69.60
2019-03-20T04:45:34.523Z,69.80
2019-03-20T04:48:03.244Z,70.80
2019-03-20T04:50:32.073Z,70.70
2019-03-20T04:53:00.805Z,70.10
2019-03-20T04:55:29.521Z,69.60
2019-03-20T04:57:58.337Z,68.70
2019-03-20T05:00:27.082Z,69.90
2019-03-20T05:02:55.806Z,70.30
2019-03-20T05:05:24.576Z,70.30
2019-03-20T05:07:53.284Z,70.60
2019-03-20T05:10:22.008Z,71.10
2019-03-20T05:12:50.750Z,71.80
2019-03-20T05:15:19.483Z,72.30
2019-03-20T05:17:48.299Z,71.90
2019-03-20T05:20:17.055Z,71.00
2019-03-20T05:22:45.892Z,71.00
2019-03-20T05:25:14.630Z,70.80
2019-03-20T05:27:43.387Z,70.60
2019-03-20T05:30:12.790Z,71.30
2019-03-20T05:32:41.521Z,71.30
2019-03-20T05:35:10.546Z,71.00
2019-03-20T05:37:39.289Z,70.70
2019-03-20T05:40:09.352Z,71.20
2019-03-20T05:42:38.112Z,70.80
2019-03-20T05:45:08.278Z,70.70
2019-03-20T05:47:37.004Z,70.20
2019-03-20T05:50:06.005Z,70.50
2019-03-20T05:52:34.734Z,70.50
2019-03-20T05:55:03.473Z,70.30
2019-03-20T05:57:32.293Z,70.50
2019-03-20T06:00:01.022Z,70.30
2019-03-20T06:02:29.745Z,70.20
2019-03-20T06:04:58.487Z,70.40
2019-03-20T06:07:27.245Z,70.50
2019-03-20T06:09:55.954Z,70.40
2019-03-20T06:12:24.700Z,70.00
2019-03-20T06:14:53.429Z,69.60
2019-03-20T06:17:22.148Z,70.50
2019-03-20T06:19:50.899Z,70.60
2019-03-20T06:22:19.655Z,70.80
2019-03-20T06:24:48.384Z,70.80
2019-03-20T06:27:17.143Z,70.40
2019-03-20T06:29:45.859Z,70.50
2019-03-20T06:32:14.584Z,70.40
2019-03-20T06:34:43.321Z,70.50
2019-03-20T06:37:12.119Z,71.20
2019-03-20T06:39:40.842Z,69.80
2019-03-20T06:42:09.595Z,69.60
2019-03-20T06:44:38.340Z,69.70
2019-03-20T06:47:07.078Z,69.60
2019-03-20T06:49:35.816Z,70.10
2019-03-20T06:52:04.541Z,70.00
2019-03-20T06:54:33.343Z,70.30
2019-03-20T06:57:05.015Z,70.40
2019-03-20T07:00:11.103Z,70.80
2019-03-20T07:02:43.379Z,71.20
2019-03-20T07:06:11.598Z,72.00
2019-03-20T07:08:44.752Z,72.40
2019-03-20T07:11:13.941Z,72.60
2019-03-20T07:13:42.664Z,72.80
2019-03-20T07:16:11.482Z,72.90
2019-03-20T07:18:40.239Z,72.60
2019-03-20T07:21:09.978Z,73.20
2019-03-20T07:23:38.771Z,72.00
2019-03-20T07:26:07.555Z,72.00
2019-03-20T07:28:36.314Z,71.80
2019-03-20T07:31:14.734Z,71.80
2019-03-20T07:33:35.571Z,72.40
2019-03-20T07:36:04.536Z,72.10
2019-03-20T07:38:33.252Z,71.70
2019-03-20T07:41:01.999Z,72.00
2019-03-20T07:43:30.723Z,73.20
2019-03-20T07:45:59.467Z,72.30
2019-03-20T07:48:28.223Z,72.20
2019-03-20T07:50:57.010Z,71.30
2019-03-20T07:53:25.759Z,71.20
2019-03-20T07:55:54.558Z,71.00
2019-03-20T07:58:23.300Z,69.60
2019-03-20T08:00:52.036Z,68.60
2019-03-20T08:03:20.754Z,67.50
2019-03-20T08:05:49.474Z,67.20
2019-03-20T08:08:18.329Z,70.00
2019-03-20T08:10:47.045Z,66.00
2019-03-20T08:13:15.814Z,69.60
2019-03-20T08:15:44.591Z,65.80
2019-03-20T08:18:13.407Z,64.20
2019-03-20T08:20:42.132Z,63.60
2019-03-20T08:23:10.861Z,63.00
2019-03-20T08:25:39.603Z,62.60
2019-03-20T08:28:08.361Z,64.20
2019-03-20T08:30:37.102Z,63.90
2019-03-20T08:33:05.888Z,63.10
2019-03-20T08:35:34.643Z,62.90
2019-03-20T08:38:03.402Z,62.50
2019-03-20T08:40:32.268Z,63.20
2019-03-20T08:43:01.018Z,64.10
2019-03-20T08:45:29.734Z,61.20
2019-03-20T08:47:58.458Z,58.60
2019-03-20T08:50:27.208Z,58.00
2019-03-20T08:52:55.958Z,59.20
2019-03-20T08:55:24.679Z,57.00
2019-03-20T08:57:53.435Z,57.90
2019-03-20T09:00:22.156Z,58.50
2019-03-20T09:02:50.894Z,59.40
2019-03-20T09:05:19.704Z,61.40
2019-03-20T09:07:48.496Z,60.50
2019-03-20T09:10:18.772Z,59.80
2019-03-20T09:12:47.529Z,59.50
2019-03-20T09:15:16.366Z,60.90
2019-03-20T09:17:45.969Z,61.40
2019-03-20T09:20:15.176Z,59.70
2019-03-20T09:22:43.899Z,59.00
2019-03-20T09:25:14.577Z,57.30
2019-03-20T09:27:43.349Z,57.60
2019-03-20T09:30:17.354Z,57.20
2019-03-20T09:32:46.084Z,54.60
2019-03-20T09:35:14.903Z,55.70
2019-03-20T09:37:51.982Z,55.70
2019-03-20T09:40:15.482Z,53.60
2019-03-20T09:42:44.220Z,54.50
2019-03-20T09:45:14.368Z,51.30
2019-03-20T09:47:43.112Z,52.10
2019-03-20T09:50:13.610Z,51.30
2019-03-20T09:52:42.324Z,50.50
2019-03-20T09:55:11.073Z,49.10
2019-03-20T09:57:39.878Z,47.50
2019-03-20T10:00:21.098Z,48.10
2019-03-20T10:02:49.859Z,47.50
2019-03-20T10:05:18.706Z,47.80
2019-03-20T10:07:47.418Z,47.60
2019-03-20T10:10:17.647Z,46.20
2019-03-20T10:12:46.366Z,46.90
2019-03-20T10:15:15.821Z,46.80
2019-03-20T10:17:44.605Z,46.80
2019-03-20T10:20:14.987Z,46.20
2019-03-20T10:22:43.738Z,46.60
2019-03-20T10:25:12.766Z,45.80
2019-03-20T10:27:41.645Z,46.30
2019-03-20T10:30:13.555Z,45.90
2019-03-20T10:32:42.319Z,45.70
2019-03-20T10:35:11.050Z,45.90
2019-03-20T10:37:39.838Z,45.90
2019-03-20T10:40:10.870Z,46.10
2019-03-20T10:42:39.578Z,45.70
2019-03-20T10:45:09.366Z,46.20
2019-03-20T10:47:38.093Z,45.70
2019-03-20T10:50:08.688Z,45.60
2019-03-20T10:52:37.479Z,45.80
2019-03-20T10:55:06.805Z,45.00
2019-03-20T10:57:35.533Z,45.10
2019-03-20T11:00:05.369Z,45.50
2019-03-20T11:02:34.150Z,45.20
2019-03-20T11:05:02.954Z,44.70
2019-03-20T11:07:31.680Z,44.70
2019-03-20T11:10:00.487Z,44.60
2019-03-20T11:12:29.290Z,45.10
2019-03-20T11:14:58.002Z,44.40
2019-03-20T11:17:26.727Z,44.10
2019-03-20T11:19:56.403Z,44.20
2019-03-20T11:22:25.288Z,44.40
2019-03-20T11:24:54.026Z,43.10
2019-03-20T11:27:22.769Z,43.60
2019-03-20T11:29:51.517Z,42.90
2019-03-20T11:32:20.293Z,43.70
2019-03-20T11:34:49.018Z,44.20
2019-03-20T11:37:17.738Z,43.80
2019-03-20T11:39:46.471Z,44.50
2019-03-20T11:42:15.306Z,44.40
2019-03-20T11:44:44.060Z,43.60
2019-03-20T11:47:12.805Z,44.70
2019-03-20T11:49:41.618Z,43.10
2019-03-20T11:52:10.374Z,43.90
2019-03-20T11:54:39.121Z,43.40
2019-03-20T11:57:07.878Z,44.10
2019-03-20T11:59:36.583Z,44.50
2019-03-20T12:02:05.321Z,45.40
2019-03-20T12:04:34.097Z,44.50
2019-03-20T12:07:02.844Z,42.90
2019-03-20T12:09:40.634Z,44.30
2019-03-20T12:12:02.032Z,43.50
2019-03-20T12:14:30.739Z,44.10
2019-03-20T12:16:59.466Z,44.40
2019-03-20T12:19:28.284Z,45.10
2019-03-20T12:21:57.015Z,42.70
2019-03-20T12:24:25.743Z,44.30
2019-03-20T12:26:54.478Z,43.70
2019-03-20T12:29:23.207Z,42.30
2019-03-20T12:31:51.915Z,41.30
2019-03-20T12:34:20.651Z,42.90
2019-03-20T12:36:49.367Z,42.20
2019-03-20T12:39:18.194Z,42.10
2019-03-20T12:41:46.948Z,42.70
2019-03-20T12:44:15.675Z,41.80
2019-03-20T12:46:44.506Z,41.40
2019-03-20T12:49:13.226Z,42.10
2019-03-20T12:51:41.953Z,40.40
2019-03-20T12:54:10.697Z,40.10
2019-03-20T12:56:39.446Z,40.10
2019-03-20T12:59:08.192Z,40.50
2019-03-20T13:01:36.938Z,39.60
2019-03-20T13:04:05.651Z,39.40
2019-03-20T13:06:34.494Z,38.30
2019-03-20T13:09:03.858Z,39.30
2019-03-20T13:11:32.731Z,38.20
2019-03-20T13:14:01.471Z,37.80
2019-03-20T13:16:30.205Z,38.60
2019-03-20T13:18:58.973Z,37.90
2019-03-20T13:21:27.695Z,38.20
2019-03-20T13:23:56.437Z,37.00
2019-03-20T13:26:25.180Z,34.30
2019-03-20T13:28:53.941Z,35.90
2019-03-20T13:31:22.912Z,35.50
2019-03-20T13:33:51.648Z,37.50
2019-03-20T13:36:20.446Z,36.00
2019-03-20T13:38:49.173Z,35.40
2019-03-20T13:41:17.995Z,36.80
2019-03-20T13:43:46.726Z,34.80
2019-03-20T13:46:15.460Z,34.00
2019-03-20T13:48:44.187Z,32.80
2019-03-20T13:51:12.931Z,31.10
2019-03-20T13:53:41.667Z,31.20
2019-03-20T13:56:10.407Z,31.60
2019-03-20T13:58:39.109Z,31.10
2019-03-20T14:01:07.862Z,31.00
2019-03-20T14:03:36.672Z,29.60
2019-03-20T14:06:05.394Z,29.80
2019-03-20T14:08:34.142Z,29.40
2019-03-20T14:11:02.955Z,28.40
2019-03-20T14:13:31.700Z,27.60
2019-03-20T14:16:00.422Z,27.20
2019-03-20T14:18:29.206Z,27.80
2019-03-20T14:20:57.938Z,27.80
2019-03-20T14:23:45.970Z,27.80
2019-03-20T14:26:14.873Z,26.40
2019-03-20T14:28:43.654Z,25.90
2019-03-20T14:31:12.429Z,25.60
2019-03-20T14:33:41.230Z,25.40
2019-03-20T14:36:09.950Z,25.90
2019-03-20T14:38:38.662Z,26.30
2019-03-20T14:41:07.699Z,25.30
2019-03-20T14:43:36.417Z,25.10
2019-03-20T14:46:05.134Z,25.70
2019-03-20T14:48:33.855Z,24.20
2019-03-20T14:51:02.598Z,24.90
2019-03-20T14:53:50.622Z,24.40
2019-03-20T14:56:19.362Z,25.10
2019-03-20T14:58:48.082Z,24.60
2019-03-20T15:01:16.883Z,25.00
2019-03-20T15:03:45.617Z,25.20
2019-03-20T15:06:14.574Z,25.80
2019-03-20T15:08:43.364Z,26.30
2019-03-20T15:11:12.086Z,24.80
2019-03-20T15:13:40.847Z,24.50
2019-03-20T15:16:11.719Z,25.70
2019-03-20T15:18:40.566Z,25.80
2019-03-20T15:21:09.289Z,25.30
2019-03-20T15:23:38.041Z,26.30
2019-03-20T15:26:06.798Z,26.00
2019-03-20T15:28:35.622Z,25.50
2019-03-20T15:31:04.422Z,25.60
2019-03-20T15:33:33.250Z,26.40
2019-03-20T15:36:01.970Z,26.50
2019-03-20T15:38:30.964Z,26.40
2019-03-20T15:40:59.872Z,26.80
2019-03-20T15:43:28.627Z,26.50
2019-03-20T15:45:57.462Z,26.90
2019-03-20T15:48:26.231Z,25.70
2019-03-20T15:50:55.013Z,26.70
2019-03-20T15:53:23.745Z,27.50
2019-03-20T15:55:52.538Z,27.70
2019-03-20T15:58:21.301Z,27.90
2019-03-20T16:00:50.068Z,27.90
2019-03-20T16:03:19.716Z,28.00
2019-03-20T16:05:48.546Z,29.50
2019-03-20T16:08:17.409Z,28.70
2019-03-20T16:10:46.218Z,29.40
2019-03-20T16:13:14.994Z,29.80
2019-03-20T16:15:43.803Z,29.80
2019-03-20T16:18:12.624Z,29.40
2019-03-20T16:20:41.375Z,29.00
2019-03-20T16:23:10.164Z,29.30
2019-03-20T16:25:38.894Z,29.80
2019-03-20T16:28:07.643Z,30.00
2019-03-20T16:30:36.367Z,30.20
2019-03-20T16:33:05.087Z,30.60
2019-03-20T16:35:33.837Z,31.20
2019-03-20T16:38:02.554Z,31.30
2019-03-20T16:40:31.310Z,31.60
2019-03-20T16:43:00.096Z,33.10
2019-03-20T16:45:29.574Z,32.40
2019-03-20T16:47:58.291Z,33.40
2019-03-20T16:50:27.038Z,34.20
2019-03-20T16:52:55.747Z,34.80
2019-03-20T16:55:24.487Z,35.00
2019-03-20T16:57:53.451Z,35.60
2019-03-20T17:00:26.404Z,35.80
2019-03-20T17:02:55.223Z,35.90
2019-03-20T17:05:24.063Z,36.80
2019-03-20T17:07:52.934Z,36.90
2019-03-20T17:10:26.805Z,37.70
2019-03-20T17:12:55.541Z,37.30
2019-03-20T17:15:25.097Z,37.80
2019-03-20T17:17:53.935Z,38.10
2019-03-20T17:20:22.711Z,38.30
2019-03-20T17:22:51.551Z,39.30
2019-03-20T17:25:20.400Z,39.40
2019-03-20T17:27:49.117Z,40.10
2019-03-20T17:30:20.174Z,40.30
2019-03-20T17:32:48.910Z,40.10
2019-03-20T17:35:17.688Z,40.60
2019-03-20T17:37:46.581Z,40.80
2019-03-20T17:40:16.413Z,41.10
2019-03-20T17:42:45.203Z,41.40
2019-03-20T17:45:14.853Z,41.00
2019-03-20T17:47:43.575Z,41.10
2019-03-20T17:50:17.715Z,41.10
2019-03-20T17:52:46.542Z,41.50
2019-03-20T17:55:15.358Z,42.10
2019-03-20T17:57:44.215Z,41.90
2019-03-20T18:00:16.100Z,42.10
2019-03-20T18:02:44.858Z,42.10
2019-03-20T18:05:13.604Z,42.00
2019-03-20T18:07:42.350Z,42.10
2019-03-20T18:10:11.130Z,42.00
2019-03-20T18:12:39.886Z,42.20
2019-03-20T18:15:10.135Z,42.10
2019-03-20T18:17:38.871Z,42.30
2019-03-20T18:20:08.571Z,42.60
2019-03-20T18:22:37.303Z,42.80
2019-03-20T18:25:06.542Z,42.80
2019-03-20T18:27:35.307Z,43.10
2019-03-20T18:30:04.927Z,43.10
2019-03-20T18:32:33.735Z,43.40
2019-03-20T18:35:02.492Z,43.90
2019-03-20T18:37:31.324Z,43.90
2019-03-20T18:40:00.037Z,43.80
2019-03-20T18:42:28.838Z,44.00
2019-03-20T18:44:57.571Z,44.20
2019-03-20T18:47:26.302Z,44.60
2019-03-20T18:49:55.093Z,45.00
2019-03-20T18:52:23.835Z,44.70
2019-03-20T18:54:52.567Z,45.10
2019-03-20T18:57:21.419Z,44.60
2019-03-20T18:59:50.147Z,45.00
2019-03-20T19:02:18.959Z,45.40
2019-03-20T19:04:47.762Z,46.00
2019-03-20T19:07:16.721Z,46.40
2019-03-20T19:09:45.529Z,47.00
2019-03-20T19:12:14.344Z,48.00
2019-03-20T19:14:43.090Z,49.00
2019-03-20T19:17:11.827Z,49.60
2019-03-20T19:19:40.629Z,49.70
2019-03-20T19:22:09.366Z,49.80
2019-03-20T19:24:38.098Z,49.50
2019-03-20T19:27:06.850Z,49.50
2019-03-20T19:29:35.557Z,49.70
2019-03-20T19:32:04.285Z,49.80
2019-03-20T19:34:33.043Z,50.00
2019-03-20T19:37:01.782Z,50.00
2019-03-20T19:39:30.579Z,50.30
2019-03-20T19:41:59.383Z,50.60
2019-03-20T19:44:28.119Z,50.80
2019-03-20T19:46:56.944Z,51.20
2019-03-20T19:49:25.685Z,51.50
2019-03-20T19:51:54.526Z,51.70
2019-03-20T19:54:23.266Z,52.10
2019-03-20T19:56:52.002Z,52.10
2019-03-20T19:59:20.778Z,51.90
2019-03-20T20:01:49.531Z,52.10
2019-03-20T20:04:18.286Z,51.80
2019-03-20T20:06:47.104Z,51.80
2019-03-20T20:09:16.066Z,52.50
2019-03-20T20:11:44.869Z,52.50
2019-03-20T20:14:13.689Z,52.20
2019-03-20T20:16:42.493Z,52.90
2019-03-20T20:19:11.255Z,53.30
2019-03-20T20:21:40.051Z,53.30
2019-03-20T20:24:08.866Z,53.20
2019-03-20T20:26:37.616Z,53.40
2019-03-20T20:29:06.396Z,53.60
2019-03-20T20:31:35.197Z,53.90
2019-03-20T20:34:04.103Z,53.70
2019-03-20T20:36:32.954Z,53.70
2019-03-20T20:39:01.726Z,54.00
2019-03-20T20:41:30.551Z,54.00
2019-03-20T20:43:59.420Z,54.20
2019-03-20T20:46:28.216Z,54.30
2019-03-20T20:48:57.024Z,54.40
2019-03-20T20:51:25.812Z,54.60
2019-03-20T20:53:54.550Z,54.40
2019-03-20T20:56:23.347Z,54.50
2019-03-20T20:58:52.106Z,54.30
2019-03-20T21:01:20.829Z,54.10
2019-03-20T21:03:49.545Z,54.50
2019-03-20T21:06:18.323Z,54.70
2019-03-20T21:08:47.046Z,55.00
2019-03-20T21:11:15.794Z,55.00
2019-03-20T21:13:44.510Z,55.00
2019-03-20T21:16:13.779Z,55.10
2019-03-20T21:19:22.546Z,55.60
2019-03-20T21:22:48.671Z,55.70
2019-03-20T21:25:19.404Z,55.80
2019-03-20T21:28:15.726Z,55.70
2019-03-20T21:31:35.043Z,55.30
2019-03-20T21:34:47.315Z,55.30
2019-03-20T21:37:53.460Z,55.50
2019-03-20T21:40:23.941Z,55.40
2019-03-20T21:43:29.318Z,55.20
2019-03-20T21:46:46.549Z,55.20
2019-03-20T21:49:15.943Z,55.00
2019-03-20T21:51:45.312Z,54.60
2019-03-20T21:54:55.589Z,54.30
2019-03-20T21:57:41.824Z,54.10
2019-03-20T22:01:04.137Z,53.90
2019-03-20T22:03:33.505Z,54.00
2019-03-20T22:06:56.001Z,54.50
2019-03-20T22:09:57.760Z,54.60
2019-03-20T22:12:31.119Z,55.10
2019-03-20T22:15:08.858Z,55.30
2019-03-20T22:18:24.445Z,55.10
2019-03-20T22:21:41.715Z,54.60
2019-03-20T22:24:40.339Z,54.80
2019-03-20T22:27:55.268Z,55.60
2019-03-20T22:30:24.558Z,54.50
2019-03-20T22:33:43.046Z,54.50
2019-03-20T22:36:21.855Z,54.00
2019-03-20T22:39:29.239Z,54.40
2019-03-20T22:42:26.210Z,54.60
2019-03-20T22:45:22.752Z,54.50
2019-03-20T22:48:50.947Z,55.10
2019-03-20T22:51:48.679Z,55.00
2019-03-20T22:54:53.411Z,55.10
2019-03-20T22:57:56.303Z,55.30
2019-03-20T23:00:26.060Z,55.40
2019-03-20T23:03:03.510Z,55.60
2019-03-20T23:05:32.788Z,55.70
2019-03-20T23:08:01.522Z,55.80
2019-03-20T23:10:30.786Z,55.60
2019-03-20T23:13:00.388Z,56.00
2019-03-20T23:15:29.663Z,56.30
2019-03-20T23:17:58.929Z,56.40
2019-03-20T23:20:28.253Z,56.70
2019-03-20T23:22:57.549Z,57.20
2019-03-20T23:25:26.914Z,57.40
2019-03-20T23:27:56.202Z,57.40
2019-03-20T23:30:26.057Z,57.10
2019-03-20T23:32:55.452Z,57.70
2019-03-20T23:35:24.729Z,57.60
2019-03-20T23:37:54.028Z,58.00
2019-03-20T23:40:23.341Z,58.20
2019-03-20T23:42:52.725Z,58.30
2019-03-20T23:45:21.992Z,58.10
2019-03-20T23:48:03.991Z,58.50
2019-03-20T23:50:33.271Z,58.70
2019-03-20T23:53:02.558Z,58.60
2019-03-20T23:55:31.856Z,58.70
2019-03-20T23:58:01.200Z,58.60
